Time;durP1;ratioP1;P1;durP2;ratioP2;P2;SDS_P1;SDS_P2;PMS_P1;PMS_P2;Temp;Humidity;BMP_temperature;BMP_pressure;BME280_temperature;BME280_humidity;BME280_pressure;Samples;Min_cycle;Max_cycle;Signal;HPM_P1;HPM_P2
2022/10/12 00:02:53;;;;;;;8.63;3.10;;;4.70;99.90;;;;;;7344760;32;20550;-61
2022/10/12 00:06:55;;;;;;;6.20;2.92;;;4.70;99.90;;;;;;7351023;32;20767;-61
2022/10/12 00:10:57;;;;;;;9.02;2.83;;;4.60;99.90;;;;;;7346110;32;20507;-60
2022/10/12 00:14:58;;;;;;;7.45;3.12;;;4.60;99.90;;;;;;7339977;32;20692;-60
2022/10/12 00:19:00;;;;;;;4.85;2.53;;;4.60;99.90;;;;;;7343198;32;20130;-62
2022/10/12 00:23:02;;;;;;;7.43;2.60;;;4.60;99.90;;;;;;7347978;32;20103;-61
2022/10/12 00:27:03;;;;;;;9.95;3.12;;;4.60;99.90;;;;;;7341927;32;20112;-60
2022/10/12 00:31:14;;;;;;;5.68;2.37;;;4.50;99.90;;;;;;7345597;32;20098;-60
2022/10/12 00:35:15;;;;;;;7.10;3.30;;;4.50;99.90;;;;;;7338800;32;20144;-60
2022/10/12 00:39:17;;;;;;;8.75;2.55;;;4.50;99.90;;;;;;7342634;32;20127;-61
2022/10/12 00:43:33;;;;;;;6.35;2.55;;;4.40;99.90;;;;;;7344921;32;20728;-60
2022/10/12 00:47:37;;;;;;;9.85;2.70;;;4.30;99.90;;;;;;7338168;32;20225;-61
2022/10/12 00:51:42;;;;;;;7.65;2.85;;;4.20;99.90;;;;;;7339577;32;20277;-60
2022/10/12 00:55:49;;;;;;;5.90;2.58;;;4.30;99.90;;;;;;7343963;32;20115;-60
2022/10/12 00:59:56;;;;;;;7.85;2.60;;;4.30;99.90;;;;;;7339940;32;22137;-60
2022/10/12 01:03:58;;;;;;;9.75;2.47;;;4.20;99.90;;;;;;7347362;32;20107;-60
2022/10/12 01:08:01;;;;;;;9.23;2.53;;;4.20;99.90;;;;;;7338677;32;20174;-61
2022/10/12 01:12:05;;;;;;;4.93;2.53;;;4.10;99.90;;;;;;7339815;32;20745;-61
2022/10/12 01:16:28;;;;;;;8.27;2.70;;;4.10;99.90;;;;;;7346119;32;20106;-60
2022/10/12 01:20:38;;;;;;;7.30;2.47;;;4.00;99.90;;;;;;7336201;32;20559;-61
2022/10/12 01:24:51;;;;;;;9.73;2.92;;;4.00;99.90;;;;;;7334836;32;20121;-62
2022/10/12 01:28:53;;;;;;;6.62;2.37;;;4.00;99.90;;;;;;7340370;32;20099;-61
2022/10/12 01:33:03;;;;;;;5.60;2.45;;;4.00;99.90;;;;;;7339802;32;20255;-60
2022/10/12 01:37:18;;;;;;;9.95;2.80;;;3.90;99.90;;;;;;7337488;32;20115;-61
2022/10/12 01:41:25;;;;;;;10.05;2.58;;;3.90;99.90;;;;;;7341587;32;20476;-61
2022/10/12 01:45:27;;;;;;;4.90;2.87;;;3.90;99.90;;;;;;7338557;32;20668;-61
2022/10/12 01:49:32;;;;;;;5.85;2.67;;;3.90;99.90;;;;;;7336449;32;20107;-60
2022/10/12 01:53:43;;;;;;;7.57;2.65;;;3.90;99.90;;;;;;7350626;32;20220;-62
2022/10/12 01:58:00;;;;;;;6.43;2.47;;;3.80;99.90;;;;;;7341605;32;20125;-61
2022/10/12 02:02:13;;;;;;;6.23;2.27;;;3.80;99.90;;;;;;7347149;32;20421;-62
2022/10/12 02:06:18;;;;;;;5.90;2.60;;;3.90;99.90;;;;;;7346052;32;20108;-60
2022/10/12 02:10:32;;;;;;;6.45;2.60;;;3.90;99.90;;;;;;7345761;32;20190;-61
2022/10/12 02:14:44;;;;;;;6.18;2.45;;;3.90;99.90;;;;;;7349246;32;20217;-61
2022/10/12 02:18:50;;;;;;;5.15;2.10;;;3.90;99.90;;;;;;7341176;32;20493;-61
2022/10/12 02:22:53;;;;;;;9.68;2.78;;;3.80;99.90;;;;;;7350223;32;20127;-61
2022/10/12 02:26:56;;;;;;;6.07;2.35;;;3.90;99.90;;;;;;7343573;32;20516;-60
2022/10/12 02:31:13;;;;;;;8.95;2.70;;;3.90;99.90;;;;;;7341458;32;20115;-60
2022/10/12 02:35:26;;;;;;;6.82;2.17;;;3.90;99.90;;;;;;7337344;32;20137;-62
2022/10/12 02:39:38;;;;;;;4.78;2.58;;;3.90;99.90;;;;;;7338279;32;20138;-60
2022/10/12 02:43:55;;;;;;;7.65;2.00;;;3.90;99.90;;;;;;7335452;32;20183;-61
2022/10/12 02:47:59;;;;;;;5.00;2.50;;;3.90;99.90;;;;;;7337819;32;20491;-60
2022/10/12 02:52:03;;;;;;;10.45;2.35;;;3.80;99.90;;;;;;7341406;32;20292;-61
2022/10/12 02:56:11;;;;;;;5.93;2.12;;;3.80;99.90;;;;;;7344346;32;20103;-61
2022/10/12 03:00:13;;;;;;;8.05;2.30;;;3.80;99.90;;;;;;7346982;32;20104;-61
2022/10/12 03:04:15;;;;;;;6.00;2.22;;;3.70;99.90;;;;;;7351570;32;20488;-61
2022/10/12 03:08:17;;;;;;;6.75;2.58;;;3.70;99.90;;;;;;7341251;32;20095;-60
2022/10/12 03:12:18;;;;;;;5.25;2.50;;;3.70;99.90;;;;;;7346035;32;20186;-62
2022/10/12 03:16:20;;;;;;;6.60;2.47;;;3.70;99.90;;;;;;7346015;32;20201;-61
2022/10/12 03:20:22;;;;;;;8.00;2.67;;;3.80;99.90;;;;;;7343595;32;20194;-61
2022/10/12 03:24:24;;;;;;;6.22;2.25;;;3.70;99.90;;;;;;7350553;32;20100;-61
2022/10/12 03:28:26;;;;;;;5.12;2.33;;;3.60;99.90;;;;;;7347261;32;20096;-61
2022/10/12 03:32:27;;;;;;;4.50;2.10;;;3.70;99.90;;;;;;7344063;32;20165;-61
2022/10/12 03:36:29;;;;;;;5.45;2.12;;;3.60;99.90;;;;;;7343661;32;20130;-60
2022/10/12 03:40:31;;;;;;;6.47;2.20;;;3.60;99.90;;;;;;7342050;32;20201;-61
2022/10/12 03:44:33;;;;;;;5.07;2.40;;;3.50;99.90;;;;;;7340155;32;20203;-60
2022/10/12 03:48:34;;;;;;;7.75;2.20;;;3.60;99.90;;;;;;7337978;32;20130;-61
2022/10/12 03:52:36;;;;;;;6.03;2.30;;;3.50;99.90;;;;;;7346902;32;20218;-60
2022/10/12 03:56:38;;;;;;;5.87;2.25;;;3.50;99.90;;;;;;7351066;32;20133;-60
2022/10/12 04:00:40;;;;;;;9.13;2.70;;;3.50;99.90;;;;;;7346674;32;20099;-61
2022/10/12 04:04:42;;;;;;;6.97;2.37;;;3.40;99.90;;;;;;7344160;32;20129;-61
2022/10/12 04:08:44;;;;;;;8.05;2.70;;;3.40;99.90;;;;;;7342373;32;20108;-60
2022/10/12 04:12:51;;;;;;;8.57;2.62;;;3.40;99.90;;;;;;7349519;32;20288;-60
2022/10/12 04:16:53;;;;;;;5.97;2.00;;;3.50;99.90;;;;;;7341387;32;20129;-61
2022/10/12 04:20:55;;;;;;;5.62;3.15;;;3.50;99.90;;;;;;7330212;32;20158;-61
2022/10/12 04:24:57;;;;;;;10.07;5.70;;;3.50;99.90;;;;;;7338789;32;20538;-60
2022/10/12 04:28:58;;;;;;;7.20;4.97;;;3.50;99.90;;;;;;7338112;32;20570;-61
2022/10/12 04:33:00;;;;;;;25.30;16.30;;;3.60;99.90;;;;;;7341042;32;20518;-61
2022/10/12 04:37:02;;;;;;;16.52;9.63;;;3.60;99.90;;;;;;7339993;32;20210;-61
2022/10/12 04:41:04;;;;;;;16.35;10.52;;;3.60;99.90;;;;;;7339913;32;20122;-60
2022/10/12 04:45:06;;;;;;;8.90;4.93;;;3.70;99.90;;;;;;7335755;32;20565;-60
2022/10/12 04:49:08;;;;;;;9.75;3.55;;;3.80;99.90;;;;;;7342784;32;20182;-60
2022/10/12 04:53:10;;;;;;;6.78;3.72;;;3.80;99.90;;;;;;7337976;32;20107;-60
2022/10/12 04:57:11;;;;;;;6.22;2.62;;;3.90;99.90;;;;;;7339025;32;20218;-60
2022/10/12 05:01:13;;;;;;;7.22;2.60;;;4.00;99.90;;;;;;7334215;32;20178;-60
2022/10/12 05:05:15;;;;;;;7.05;2.70;;;4.00;99.90;;;;;;7348179;32;20099;-60
2022/10/12 05:09:17;;;;;;;4.90;3.30;;;3.90;99.90;;;;;;7339208;32;20131;-61
2022/10/12 05:13:18;;;;;;;6.35;3.58;;;4.00;99.90;;;;;;7342350;32;20131;-60
2022/10/12 05:17:20;;;;;;;4.90;2.75;;;4.00;99.90;;;;;;7338405;32;20242;-61
2022/10/12 05:21:22;;;;;;;7.37;3.85;;;4.10;99.90;;;;;;7344196;32;20194;-61
2022/10/12 05:25:24;;;;;;;6.28;3.75;;;4.00;99.90;;;;;;7345093;32;20103;-61
2022/10/12 05:29:25;;;;;;;7.32;3.53;;;4.00;99.90;;;;;;7340082;32;20123;-60
2022/10/12 05:33:27;;;;;;;9.77;3.45;;;3.90;99.90;;;;;;7338919;32;20182;-63
2022/10/12 05:37:29;;;;;;;6.57;3.70;;;3.80;99.90;;;;;;7349298;32;20754;-62
2022/10/12 05:41:30;;;;;;;9.95;5.53;;;3.80;99.90;;;;;;7342968;32;20111;-65
2022/10/12 05:45:32;;;;;;;7.15;4.80;;;3.80;99.90;;;;;;7333947;32;20239;-62
2022/10/12 05:49:34;;;;;;;6.93;4.30;;;3.70;99.90;;;;;;7343167;32;20209;-62
2022/10/12 05:53:36;;;;;;;4.80;2.40;;;3.70;99.90;;;;;;7339947;32;20103;-64
2022/10/12 05:57:38;;;;;;;7.20;2.08;;;3.60;99.90;;;;;;7343740;32;20087;-64
2022/10/12 06:01:40;;;;;;;11.18;2.97;;;3.50;99.90;;;;;;7336619;32;20091;-64
2022/10/12 06:05:43;;;;;;;6.47;3.05;;;3.50;99.90;;;;;;7340919;32;20232;-64
2022/10/12 06:09:46;;;;;;;8.07;2.50;;;3.50;99.90;;;;;;7346668;32;20153;-63
2022/10/12 06:13:48;;;;;;;6.32;2.17;;;3.50;99.90;;;;;;7329132;32;20182;-63
2022/10/12 06:17:49;;;;;;;3.42;2.15;;;3.50;99.90;;;;;;7340476;32;20105;-63
2022/10/12 06:21:51;;;;;;;9.40;2.30;;;3.50;99.90;;;;;;7339118;32;20167;-64
2022/10/12 06:25:53;;;;;;;5.35;1.90;;;3.50;99.90;;;;;;7343304;32;20281;-64
2022/10/12 06:29:55;;;;;;;10.75;3.35;;;3.50;99.90;;;;;;7341595;32;20122;-63
2022/10/12 06:33:57;;;;;;;5.93;2.20;;;3.50;99.90;;;;;;7342642;32;20245;-64
2022/10/12 06:37:59;;;;;;;7.78;2.33;;;3.50;99.90;;;;;;7343172;32;20174;-63
2022/10/12 06:42:00;;;;;;;5.80;2.28;;;3.50;99.90;;;;;;7343741;32;20125;-64
2022/10/12 06:46:03;;;;;;;6.05;2.25;;;3.50;99.90;;;;;;7344447;32;20141;-66
2022/10/12 06:50:05;;;;;;;9.15;4.70;;;3.60;99.90;;;;;;7346952;32;20178;-63
2022/10/12 06:54:07;;;;;;;26.42;13.88;;;3.60;99.90;;;;;;7342076;32;20134;-64
2022/10/12 06:58:08;;;;;;;30.05;18.33;;;3.60;99.90;;;;;;7343109;32;20107;-65
2022/10/12 07:02:10;;;;;;;17.17;10.52;;;3.70;99.90;;;;;;7346389;32;20204;-66
2022/10/12 07:06:13;;;;;;;10.35;3.85;;;3.80;99.90;;;;;;7343806;32;20539;-66
2022/10/12 07:10:15;;;;;;;8.25;3.03;;;3.90;99.90;;;;;;7345466;32;20125;-65
2022/10/12 07:14:16;;;;;;;5.80;2.97;;;4.10;99.90;;;;;;7350910;32;20145;-65
2022/10/12 07:18:18;;;;;;;7.57;3.40;;;4.30;99.90;;;;;;7339429;32;20129;-65
2022/10/12 07:22:20;;;;;;;8.20;3.42;;;4.40;99.90;;;;;;7345556;32;20508;-63
2022/10/12 07:26:21;;;;;;;11.20;3.08;;;4.60;99.90;;;;;;7341415;32;21985;-64
2022/10/12 07:30:23;;;;;;;7.47;4.07;;;4.90;99.90;;;;;;7342729;32;20145;-63
2022/10/12 07:34:26;;;;;;;6.65;3.80;;;5.00;99.90;;;;;;7341368;32;20496;-64
2022/10/12 07:38:28;;;;;;;9.38;4.12;;;5.30;99.90;;;;;;7350134;32;20130;-64
2022/10/12 07:42:30;;;;;;;9.93;4.78;;;5.50;99.90;;;;;;7339549;32;20127;-63
2022/10/12 07:46:31;;;;;;;12.65;5.70;;;5.60;99.90;;;;;;7346121;32;20125;-65
2022/10/12 07:50:33;;;;;;;11.60;5.47;;;5.90;99.90;;;;;;7347763;32;20206;-63
2022/10/12 07:54:35;;;;;;;10.55;5.97;;;6.20;99.90;;;;;;7347517;32;20221;-64
2022/10/12 07:58:36;;;;;;;10.43;4.47;;;6.40;99.90;;;;;;7345060;32;20100;-65
2022/10/12 08:02:38;;;;;;;15.05;4.40;;;6.70;99.90;;;;;;7345110;32;20186;-64
2022/10/12 08:06:42;;;;;;;10.68;2.83;;;7.00;99.90;;;;;;7345311;32;20125;-64
2022/10/12 08:10:44;;;;;;;9.07;2.90;;;7.40;99.90;;;;;;7341481;32;20096;-64
2022/10/12 08:14:46;;;;;;;10.57;2.53;;;7.70;99.90;;;;;;7341247;32;20124;-64
2022/10/12 08:18:47;;;;;;;11.05;2.45;;;8.00;99.90;;;;;;7346304;32;20106;-64
2022/10/12 08:22:49;;;;;;;12.18;2.97;;;8.20;99.90;;;;;;7342303;32;20233;-64
2022/10/12 08:26:51;;;;;;;9.50;2.40;;;8.30;99.90;;;;;;7340929;32;20099;-64
2022/10/12 08:30:53;;;;;;;10.18;2.25;;;8.40;99.90;;;;;;7335966;32;20225;-63
2022/10/12 08:34:54;;;;;;;8.88;2.08;;;8.50;99.90;;;;;;7347468;32;20102;-64
2022/10/12 08:38:56;;;;;;;10.07;2.65;;;8.60;99.90;;;;;;7336838;32;20108;-63
2022/10/12 08:43:29;;;;;;;8.73;2.83;;;8.60;99.90;;;;;;7343797;32;20130;-63
2022/10/12 08:47:44;;;;;;;13.45;2.78;;;8.70;99.90;;;;;;7347804;32;20112;-64
2022/10/12 08:51:54;;;;;;;5.05;2.12;;;8.90;99.90;;;;;;7340278;32;20107;-63
2022/10/12 08:55:55;;;;;;;5.85;2.20;;;9.00;99.90;;;;;;7337030;32;20253;-65
2022/10/12 08:59:58;;;;;;;6.37;2.22;;;9.20;99.90;;;;;;7341077;32;20253;-63
2022/10/12 09:04:37;;;;;;;9.88;2.85;;;9.60;99.90;;;;;;7339323;32;20190;-64
2022/10/12 09:08:57;;;;;;;9.90;2.30;;;9.90;99.90;;;;;;7343923;32;20187;-64
2022/10/12 09:13:24;;;;;;;12.45;2.37;;;10.30;99.90;;;;;;7340656;32;20142;-64
2022/10/12 09:18:03;;;;;;;10.45;2.40;;;10.70;99.90;;;;;;7343154;32;21946;-64
2022/10/12 09:22:16;;;;;;;13.57;3.00;;;10.90;99.90;;;;;;7275418;32;20107;-63
2022/10/12 09:26:24;;;;;;;8.45;2.10;;;11.10;99.90;;;;;;7344757;32;20166;-64
2022/10/12 09:30:26;;;;;;;6.80;1.90;;;11.20;99.90;;;;;;7344353;32;20118;-63
2022/10/12 09:34:28;;;;;;;8.18;2.03;;;11.70;99.90;;;;;;7339042;32;20100;-64
2022/10/12 09:38:30;;;;;;;9.48;2.42;;;12.10;99.90;;;;;;7341920;32;20095;-64
2022/10/12 09:42:33;;;;;;;8.05;2.12;;;12.10;99.90;;;;;;7344508;32;20201;-64
2022/10/12 09:46:57;;;;;;;6.10;2.10;;;12.10;99.90;;;;;;7336359;32;20104;-63
2022/10/12 09:51:02;;;;;;;15.05;3.05;;;12.40;99.90;;;;;;7342962;32;20104;-64
2022/10/12 09:55:17;;;;;;;8.23;2.05;;;13.20;99.90;;;;;;7345736;32;20100;-63
2022/10/12 09:59:35;;;;;;;9.48;2.20;;;13.70;99.90;;;;;;7346488;32;20109;-63
2022/10/12 10:03:37;;;;;;;7.43;2.08;;;13.80;99.90;;;;;;7352245;32;20672;-63
2022/10/12 10:07:38;;;;;;;8.43;2.17;;;13.60;99.90;;;;;;7352405;32;20522;-63
2022/10/12 10:11:40;;;;;;;8.18;1.95;;;13.40;99.90;;;;;;7348922;32;20190;-63
2022/10/12 10:15:46;;;;;;;11.23;2.12;;;13.20;99.90;;;;;;7345168;32;20124;-63
2022/10/12 10:19:50;;;;;;;8.73;2.20;;;13.00;99.90;;;;;;7338870;32;20232;-63
2022/10/12 10:23:58;;;;;;;7.53;1.95;;;13.00;99.90;;;;;;7343512;32;20128;-63
2022/10/12 10:28:21;;;;;;;11.25;2.33;;;13.00;99.90;;;;;;7348788;32;20191;-65
2022/10/12 10:32:26;;;;;;;8.38;2.40;;;12.80;99.90;;;;;;7344535;32;20217;-64
2022/10/12 10:36:28;;;;;;;9.18;2.15;;;12.80;99.90;;;;;;7346583;32;20135;-64
2022/10/12 10:40:31;;;;;;;6.80;1.80;;;12.70;99.90;;;;;;7344350;32;20230;-65
2022/10/12 10:44:35;;;;;;;9.18;2.20;;;12.90;99.90;;;;;;7345141;32;20587;-64
2022/10/12 10:48:52;;;;;;;8.00;2.10;;;12.90;99.90;;;;;;7344380;32;20623;-64
2022/10/12 10:52:57;;;;;;;6.72;2.00;;;13.10;99.90;;;;;;7346545;32;20141;-63
2022/10/12 10:57:04;;;;;;;7.28;1.95;;;13.00;99.90;;;;;;7347896;32;20112;-63
2022/10/12 11:01:43;;;;;;;9.18;1.90;;;12.90;99.90;;;;;;7350644;32;20657;-63
2022/10/12 11:05:56;;;;;;;11.00;2.30;;;13.00;99.90;;;;;;7342424;32;20107;-64
2022/10/12 11:10:03;;;;;;;10.82;2.17;;;13.00;99.90;;;;;;7348435;32;20831;-64
2022/10/12 11:14:16;;;;;;;8.90;2.20;;;13.00;99.90;;;;;;7345852;32;20843;-64
2022/10/12 11:18:39;;;;;;;8.00;2.00;;;13.20;99.90;;;;;;7344868;32;20183;-63
2022/10/12 11:22:52;;;;;;;8.68;1.92;;;13.50;99.90;;;;;;7341212;32;20103;-65
2022/10/12 11:26:56;;;;;;;7.65;2.00;;;13.70;99.90;;;;;;7342775;32;20112;-63
2022/10/12 11:31:00;;;;;;;8.20;2.28;;;13.80;99.90;;;;;;7341788;32;20107;-63
2022/10/12 11:35:05;;;;;;;10.23;2.30;;;14.00;99.90;;;;;;7334948;32;20108;-64
2022/10/12 11:39:37;;;;;;;6.18;1.95;;;14.40;99.90;;;;;;7345501;32;20108;-63
2022/10/12 11:43:55;;;;;;;14.45;3.08;;;14.50;99.90;;;;;;7341622;32;20125;-63
2022/10/12 11:48:05;;;;;;;6.85;2.40;;;14.60;99.90;;;;;;7342277;32;20182;-63
2022/10/12 11:52:11;;;;;;;9.15;2.20;;;14.60;99.90;;;;;;7340724;32;20186;-64
2022/10/12 11:56:38;;;;;;;11.80;2.83;;;14.50;99.90;;;;;;7347140;32;20209;-63
2022/10/12 12:01:24;;;;;;;7.97;2.42;;;14.60;99.90;;;;;;7344696;32;20182;-65
2022/10/12 12:05:30;;;;;;;7.50;3.25;;;14.70;99.90;;;;;;7346046;32;20111;-64
2022/10/12 12:09:34;;;;;;;11.07;2.62;;;14.90;99.90;;;;;;7340068;32;20997;-65
2022/10/12 12:13:36;;;;;;;12.80;2.80;;;15.10;99.90;;;;;;7346448;32;20230;-63
2022/10/12 12:17:37;;;;;;;7.53;2.62;;;15.20;99.90;;;;;;7343528;32;20210;-64
2022/10/12 12:22:17;;;;;;;9.15;2.50;;;15.40;99.90;;;;;;7339216;32;20100;-64
2022/10/12 12:26:23;;;;;;;6.50;2.30;;;15.40;99.90;;;;;;7347817;32;20126;-64
2022/10/12 12:30:35;;;;;;;10.13;2.53;;;15.50;99.90;;;;;;7339554;32;20133;-64
2022/10/12 12:34:53;;;;;;;6.70;2.10;;;15.70;99.90;;;;;;7344732;32;20099;-64
2022/10/12 12:39:03;;;;;;;8.27;2.65;;;16.00;99.90;;;;;;7343841;32;20123;-65
2022/10/12 12:43:30;;;;;;;10.20;3.12;;;15.90;99.90;;;;;;7337250;32;20198;-65
2022/10/12 12:47:38;;;;;;;9.25;2.37;;;15.80;99.90;;;;;;7339656;32;20108;-64
2022/10/12 12:51:51;;;;;;;7.22;2.40;;;15.70;99.90;;;;;;7350056;32;20635;-64
2022/10/12 12:56:02;;;;;;;10.63;3.05;;;15.60;99.90;;;;;;7341312;32;20818;-64
2022/10/12 13:00:18;;;;;;;9.18;2.97;;;15.50;99.90;;;;;;7341620;32;20123;-64
2022/10/12 13:04:41;;;;;;;7.05;2.80;;;15.60;99.90;;;;;;7346385;32;20222;-65
2022/10/12 13:09:13;;;;;;;10.68;3.12;;;15.40;99.90;;;;;;7342529;32;20628;-66
2022/10/12 13:13:23;;;;;;;6.50;2.87;;;15.60;99.90;;;;;;7342904;32;20099;-64
2022/10/12 13:18:05;;;;;;;8.23;3.10;;;15.70;99.90;;;;;;7339098;32;20276;-64
2022/10/12 13:22:30;;;;;;;11.20;3.60;;;15.70;99.90;;;;;;7339986;32;20107;-64
2022/10/12 13:26:34;;;;;;;11.05;4.40;;;15.80;99.90;;;;;;7347041;32;20302;-59
2022/10/12 13:30:50;;;;;;;13.88;4.75;;;15.90;99.90;;;;;;7345329;32;20118;-59
2022/10/12 13:35:00;;;;;;;10.02;4.57;;;15.70;99.90;;;;;;7341201;32;20516;-59
2022/10/12 13:39:15;;;;;;;8.50;3.67;;;16.00;99.90;;;;;;7342054;32;20106;-60
2022/10/12 13:43:24;;;;;;;12.77;5.03;;;15.90;99.90;;;;;;7343686;32;20103;-59
2022/10/12 13:47:31;;;;;;;13.98;4.53;;;16.10;99.90;;;;;;7346955;32;20137;-59
2022/10/12 13:51:33;;;;;;;;;;;16.10;99.90;;;;;;7345262;32;20254;-60
2022/10/12 13:55:35;;;;;;;11.90;3.50;;;16.00;99.90;;;;;;7340608;32;20020;-60
2022/10/12 13:59:38;;;;;;;8.98;3.12;;;16.20;99.90;;;;;;7340482;32;20229;-60
2022/10/12 14:03:43;;;;;;;10.02;3.70;;;16.30;99.90;;;;;;7339598;32;20459;-59
2022/10/12 14:07:45;;;;;;;11.30;3.70;;;16.20;99.90;;;;;;7346025;32;20122;-59
2022/10/12 14:11:49;;;;;;;7.78;3.17;;;15.90;99.90;;;;;;7340600;32;20178;-59
2022/10/12 14:15:51;;;;;;;10.63;3.40;;;15.80;99.90;;;;;;7338705;32;20257;-59
2022/10/12 14:19:54;;;;;;;10.05;3.20;;;15.70;99.90;;;;;;7335044;32;20649;-59
2022/10/12 14:23:58;;;;;;;7.62;2.85;;;15.70;99.90;;;;;;7344423;32;20813;-65
2022/10/12 14:28:18;;;;;;;6.93;3.30;;;15.60;99.90;;;;;;7340341;32;20106;-64
2022/10/12 14:32:39;;;;;;;14.50;3.90;;;15.70;99.90;;;;;;7339018;32;20095;-64
2022/10/12 14:36:41;;;;;;;11.57;4.20;;;15.60;99.90;;;;;;7341794;32;20095;-66
2022/10/12 14:40:43;;;;;;;9.32;3.50;;;15.60;99.90;;;;;;7341404;32;20220;-64
2022/10/12 14:44:44;;;;;;;11.63;4.25;;;15.70;99.90;;;;;;7342822;32;20100;-64
2022/10/12 14:48:46;;;;;;;9.82;4.22;;;15.60;99.90;;;;;;7344928;32;20092;-64
2022/10/12 14:52:54;;;;;;;10.05;3.87;;;15.60;99.90;;;;;;7347149;32;20154;-65
2022/10/12 14:57:10;;;;;;;8.25;3.50;;;15.50;99.90;;;;;;7341031;32;20817;-65
2022/10/12 15:01:12;;;;;;;10.88;4.35;;;15.50;99.90;;;;;;7344896;32;20122;-65
2022/10/12 15:05:16;;;;;;;9.05;3.87;;;15.30;99.90;;;;;;7340718;32;20163;-64
2022/10/12 15:09:18;;;;;;;10.88;4.10;;;15.20;99.90;;;;;;7344480;32;20103;-64
2022/10/12 15:13:20;;;;;;;9.82;3.50;;;15.20;99.90;;;;;;7342470;32;20129;-64
2022/10/12 15:17:21;;;;;;;10.38;4.20;;;15.20;99.90;;;;;;7345694;32;20134;-65
2022/10/12 15:21:24;;;;;;;9.57;3.72;;;15.40;99.90;;;;;;7339874;32;20216;-65
2022/10/12 15:25:46;;;;;;;10.07;3.58;;;15.20;99.90;;;;;;7346464;32;20117;-64
2022/10/12 15:29:48;;;;;;;8.88;3.72;;;15.10;99.90;;;;;;7352322;32;20100;-64
2022/10/12 15:33:50;;;;;;;8.27;3.47;;;15.00;99.90;;;;;;7345092;32;20100;-64
2022/10/12 15:37:55;;;;;;;7.75;3.22;;;14.90;99.90;;;;;;7349213;32;20122;-66
2022/10/12 15:41:56;;;;;;;6.80;3.65;;;14.70;99.90;;;;;;7339676;32;20602;-64
2022/10/12 15:45:58;;;;;;;9.15;3.75;;;14.40;99.90;;;;;;7343544;32;20099;-64
2022/10/12 15:50:00;;;;;;;9.07;3.83;;;14.20;99.90;;;;;;7342318;32;20126;-66
2022/10/12 15:54:02;;;;;;;7.80;3.10;;;14.00;99.90;;;;;;7344802;32;20225;-64
2022/10/12 15:58:04;;;;;;;10.95;3.85;;;14.00;99.90;;;;;;7340888;32;20198;-64
2022/10/12 16:02:11;;;;;;;8.40;3.22;;;13.80;99.90;;;;;;7343825;32;20096;-63
2022/10/12 16:06:13;;;;;;;8.52;3.70;;;13.70;99.90;;;;;;7344077;32;20459;-63
2022/10/12 16:10:17;;;;;;;7.57;3.28;;;13.50;99.90;;;;;;7348849;32;20107;-63
2022/10/12 16:14:19;;;;;;;10.38;3.62;;;13.30;99.90;;;;;;7340556;32;20204;-63
2022/10/12 16:18:20;;;;;;;8.65;3.78;;;13.10;99.90;;;;;;7348056;32;20131;-64
2022/10/12 16:22:22;;;;;;;9.13;3.92;;;12.90;99.90;;;;;;7344050;32;20547;-63
2022/10/12 16:26:24;;;;;;;9.70;4.35;;;12.80;99.90;;;;;;7347494;32;20486;-64
2022/10/12 16:30:26;;;;;;;9.80;3.65;;;12.70;99.90;;;;;;7341812;32;20254;-64
2022/10/12 16:34:30;;;;;;;9.57;3.80;;;12.60;99.90;;;;;;7342997;32;20103;-64
2022/10/12 16:38:31;;;;;;;7.87;3.70;;;12.40;99.90;;;;;;7329365;32;20250;-64
2022/10/12 16:42:33;;;;;;;11.00;3.62;;;12.30;99.90;;;;;;7343361;32;20230;-64
2022/10/12 16:46:36;;;;;;;6.62;3.25;;;12.20;99.90;;;;;;7340669;32;20118;-64
2022/10/12 16:50:39;;;;;;;6.82;3.65;;;12.10;99.90;;;;;;7345352;32;20226;-64
2022/10/12 16:54:41;;;;;;;8.00;3.72;;;11.90;99.90;;;;;;7334661;32;20133;-65
2022/10/12 16:58:42;;;;;;;10.23;3.75;;;11.70;99.90;;;;;;7339528;32;20532;-60
2022/10/12 17:02:46;;;;;;;13.35;4.22;;;11.60;99.90;;;;;;7344157;32;20103;-61
2022/10/12 17:06:48;;;;;;;8.40;4.00;;;11.50;99.90;;;;;;7338268;32;20217;-61
2022/10/12 17:10:49;;;;;;;10.85;3.30;;;11.30;99.90;;;;;;7342158;32;20134;-61
2022/10/12 17:14:52;;;;;;;11.18;4.43;;;11.20;99.90;;;;;;7339309;32;20172;-62
2022/10/12 17:18:54;;;;;;;9.10;4.28;;;11.00;99.90;;;;;;7349250;32;20212;-61
2022/10/12 17:23:00;;;;;;;11.52;4.30;;;10.90;99.90;;;;;;7342221;32;20091;-60
2022/10/12 17:27:04;;;;;;;10.23;4.20;;;10.70;99.90;;;;;;7348028;32;20108;-62
2022/10/12 17:31:07;;;;;;;7.82;4.22;;;10.60;99.90;;;;;;7345168;32;20218;-60
2022/10/12 17:35:12;;;;;;;14.15;4.43;;;10.50;99.90;;;;;;7338115;32;20130;-60
2022/10/12 17:39:14;;;;;;;8.38;4.05;;;10.40;99.90;;;;;;7339905;32;20178;-60
2022/10/12 17:43:17;;;;;;;20.08;16.77;;;10.40;99.90;;;;;;7339398;32;20118;-61
2022/10/12 17:47:19;;;;;;;12.57;7.60;;;10.20;99.90;;;;;;7340630;32;20167;-60
2022/10/12 17:51:21;;;;;;;11.07;6.15;;;10.20;99.90;;;;;;7336840;32;20189;-64
2022/10/12 17:55:23;;;;;;;16.70;6.60;;;10.10;99.90;;;;;;7333128;32;20112;-62
2022/10/12 17:59:45;;;;;;;11.68;5.57;;;10.00;99.90;;;;;;7332850;32;20181;-62
2022/10/12 18:03:47;;;;;;;9.75;5.45;;;10.00;99.90;;;;;;7344254;32;20099;-61
2022/10/12 18:07:49;;;;;;;10.25;6.18;;;9.90;99.90;;;;;;7339050;32;20685;-61
2022/10/12 18:11:50;;;;;;;8.25;5.35;;;9.80;99.90;;;;;;7344242;32;20170;-60
2022/10/12 18:15:53;;;;;;;11.05;5.72;;;9.80;99.90;;;;;;7338059;32;20233;-61
2022/10/12 18:19:54;;;;;;;7.05;4.45;;;9.80;99.90;;;;;;7342478;32;20199;-62
2022/10/12 18:23:56;;;;;;;18.90;5.28;;;9.70;99.90;;;;;;7343622;32;20125;-62
2022/10/12 18:27:58;;;;;;;10.93;4.80;;;9.60;99.90;;;;;;7347334;32;20811;-62
2022/10/12 18:32:00;;;;;;;10.50;4.65;;;9.60;99.90;;;;;;7348719;32;20095;-62
2022/10/12 18:36:04;;;;;;;9.90;5.28;;;9.50;99.90;;;;;;7341651;32;20131;-63
2022/10/12 18:40:07;;;;;;;12.52;5.72;;;9.40;99.90;;;;;;7342878;32;20116;-62
2022/10/12 18:44:09;;;;;;;14.15;6.35;;;9.30;99.90;;;;;;7345908;32;20107;-62
2022/10/12 18:48:11;;;;;;;11.63;5.87;;;9.20;99.90;;;;;;7353919;32;20118;-64
2022/10/12 18:52:13;;;;;;;17.12;6.12;;;9.20;99.90;;;;;;7351190;32;20621;-62
2022/10/12 18:56:16;;;;;;;13.95;5.70;;;9.10;99.90;;;;;;7341510;32;20115;-62
2022/10/12 19:00:18;;;;;;;14.90;6.82;;;9.00;99.90;;;;;;7344805;32;20095;-62
2022/10/12 19:04:20;;;;;;;12.30;6.75;;;8.90;99.90;;;;;;7343078;32;20844;-60
2022/10/12 19:08:22;;;;;;;12.57;6.35;;;8.80;99.90;;;;;;7340522;32;20121;-63
2022/10/12 19:12:23;;;;;;;15.57;6.50;;;8.70;99.90;;;;;;7342430;32;20220;-63
2022/10/12 19:16:26;;;;;;;12.65;6.93;;;8.60;99.90;;;;;;7344700;32;20201;-62
2022/10/12 19:20:27;;;;;;;10.27;5.70;;;8.40;99.90;;;;;;7347001;32;20122;-61
2022/10/12 19:24:29;;;;;;;12.23;6.12;;;8.40;99.90;;;;;;7348633;32;20099;-63
2022/10/12 19:28:31;;;;;;;12.02;7.78;;;8.40;99.90;;;;;;7349338;32;20197;-66
2022/10/12 19:32:33;;;;;;;11.00;5.35;;;8.30;99.90;;;;;;7347873;32;20220;-62
2022/10/12 19:36:36;;;;;;;10.27;5.25;;;8.20;99.90;;;;;;7341879;32;20226;-63
2022/10/12 19:40:38;;;;;;;12.48;5.45;;;8.10;99.90;;;;;;7342676;32;20154;-62
2022/10/12 19:44:40;;;;;;;10.10;5.72;;;8.10;99.90;;;;;;7340548;32;20145;-63
2022/10/12 19:48:42;;;;;;;13.77;6.97;;;8.10;99.90;;;;;;7338068;32;20483;-62
2022/10/12 19:52:43;;;;;;;13.00;6.93;;;8.20;99.90;;;;;;7347148;32;20125;-60
2022/10/12 19:56:45;;;;;;;13.77;8.32;;;8.20;99.90;;;;;;7337437;32;20808;-61
2022/10/12 20:00:47;;;;;;;16.23;8.75;;;8.30;99.90;;;;;;7337115;32;20129;-61
2022/10/12 20:04:52;;;;;;;12.93;7.10;;;8.30;99.90;;;;;;7342877;32;20099;-61
2022/10/12 20:08:57;;;;;;;14.98;6.75;;;8.20;99.90;;;;;;7338741;32;20748;-62
2022/10/12 20:12:58;;;;;;;11.50;6.37;;;8.20;99.90;;;;;;7341240;32;20134;-61
2022/10/12 20:17:00;;;;;;;13.62;6.43;;;8.00;99.90;;;;;;7345058;32;20100;-61
2022/10/12 20:21:06;;;;;;;13.60;6.32;;;8.00;99.90;;;;;;7344051;32;20174;-62
2022/10/12 20:25:08;;;;;;;11.38;6.32;;;7.90;99.90;;;;;;7345896;32;20103;-62
2022/10/12 20:29:10;;;;;;;14.00;7.35;;;7.90;99.90;;;;;;7343923;32;20264;-62
2022/10/12 20:33:13;;;;;;;10.82;7.10;;;7.80;99.90;;;;;;7340501;32;20125;-61
2022/10/12 20:37:17;;;;;;;11.63;7.22;;;7.70;99.90;;;;;;7345036;32;20098;-60
2022/10/12 20:41:20;;;;;;;12.50;6.40;;;7.70;99.90;;;;;;7341852;32;20196;-59
2022/10/12 20:45:22;;;;;;;11.10;6.28;;;7.70;99.90;;;;;;7339471;32;20100;-60
2022/10/12 20:49:24;;;;;;;13.80;6.22;;;7.60;99.90;;;;;;7344081;32;20207;-60
2022/10/12 20:53:25;;;;;;;10.88;6.50;;;7.50;99.90;;;;;;7344195;32;20178;-60
2022/10/12 20:57:27;;;;;;;14.35;6.43;;;7.40;99.90;;;;;;7345946;32;20121;-60
2022/10/12 21:01:29;;;;;;;11.55;6.43;;;7.30;99.90;;;;;;7341223;32;20251;-59
2022/10/12 21:05:34;;;;;;;10.45;6.57;;;7.30;99.90;;;;;;7347016;32;20110;-60
2022/10/12 21:09:36;;;;;;;11.63;5.93;;;7.20;99.90;;;;;;7338163;32;20103;-60
2022/10/12 21:13:39;;;;;;;11.30;6.03;;;7.20;99.90;;;;;;7340551;32;20117;-60
2022/10/12 21:17:41;;;;;;;9.23;6.32;;;7.10;99.90;;;;;;7347202;32;20131;-60
2022/10/12 21:21:43;;;;;;;10.35;6.03;;;7.10;99.90;;;;;;7346170;32;20129;-59